Pagrindinis puslapis
METAR-TAF:

METAR-TAF

Oro uostai :

Arar, Saudo Arabija

platuma: 30-54N, ilguma: 041-08E, Aukštis: 555 m

Dabartinis oras

Ataskaita buvo paskelbta 26 minutes, ne 11:00 UTC
Ramus vėjas
Temperatūra 39°C
Drėgmė 18%
Slėgis 1010 hPa
Matomumas 10 km arba daugiau
nėra debesų žemiau 1500 m ir nėra kamuolinių lietaus debesų

METAR: OERR 171100Z 00000KT CAVOK 39/10 Q1010 NOSIG

Laikas: 14:26 (11:26 UTC)

Prognozė

Ataskaita buvo paskelbta 12 valandos ir 26 minutes, ne 23:00 UTC
Prognozė galioja nuo 17 metu 00 UTC su 18 metu 06 UTC
Vėjas 5 kt iš Šiaurės su gūsio iki 15 kt
Matomumas: 6000 m
Mažai debesys ne aukštis 4000 ft

TAF: OERR 162300Z 1700/1806 36005G15KT 6000 FEW040

Orai ataskaitas ir orų prognozės (METAR, TAF).

turimą stotys yra geltonos ir raudonos taškus žemėlapyje.

Perkelti pele per norėdami pamatyti stoties vardą.

Tada spustelėkite, norėdami matyti oro stebėjimo ir prognozės.

Norėdami pakeisti žemėlapį: spustelėkite ant žalios mygtukų su juodo kryžiaus žemyn,; žalią mygtuką su brūkšneliu, jei norite nutolinti; arba žalių rodyklių gretimoms žemėlapius.


METAR-TAF: